Time;durP1;ratioP1;P1;durP2;ratioP2;P2;SDS_P1;SDS_P2;PMS_P1;PMS_P2;Temp;Humidity;BMP_temperature;BMP_pressure;BME280_temperature;BME280_humidity;BME280_pressure;Samples;Min_cycle;Max_cycle;Signal;HPM_P1;HPM_P2
2022/01/13 00:04:38;;;;;;;;;;;3.90;99.90;;;;;;5104374;22;19924;-80
2022/01/13 00:07:05;;;;;;;;;;;3.90;99.90;;;;;;5073458;23;19923;-81
2022/01/13 00:09:30;;;;;;;;;;;3.90;99.90;;;;;;5074179;22;19930;-80
2022/01/13 00:11:57;;;;;;;;;;;4.50;99.90;;;;;;5066563;28;19979;-80
2022/01/13 00:14:40;;;;;;;;;;;3.90;99.90;;;;;;5089149;22;19935;-81
2022/01/13 00:22:18;;;;;;;;;;;3.90;99.90;;;;;;5104728;22;20015;-80
2022/01/13 00:24:47;;;;;;;;;;;3.90;99.90;;;;;;5066303;28;19959;-80
2022/01/13 00:27:22;;;;;;;;;;;4.20;99.90;;;;;;5073417;22;19995;-80
2022/01/13 00:29:47;;;;;;;;;;;3.90;99.90;;;;;;5084345;22;20374;-80
2022/01/13 00:32:21;;;;;;;;;;;3.90;99.90;;;;;;5085940;22;19947;-80
2022/01/13 00:34:46;;;;;;;;;;;3.90;99.90;;;;;;5071998;23;19924;-80
2022/01/13 00:37:18;;;;;;;;;;;3.90;99.90;;;;;;5091196;23;19985;-80
2022/01/13 00:39:44;;;;;;;;;;;3.90;99.90;;;;;;5040998;28;20329;-80
2022/01/13 00:42:16;;;;;;;;;;;3.80;99.90;;;;;;5079206;23;19923;-80
2022/01/13 00:44:43;;;;;;;;;;;3.90;99.90;;;;;;5044356;23;20059;-80
2022/01/13 00:47:16;;;;;;;;;;;3.90;99.90;;;;;;5064136;23;19924;-80
2022/01/13 00:49:41;;;;;;;;;;;3.90;99.90;;;;;;5111206;22;19924;-80
2022/01/13 00:52:07;;;;;;;;;;;3.90;99.90;;;;;;5084955;23;20443;-80
2022/01/13 00:54:33;;;;;;;;;;;3.90;99.90;;;;;;5089493;22;19950;-80
2022/01/13 00:56:59;;;;;;;;;;;4.60;99.90;;;;;;5099699;22;19948;-80
2022/01/13 00:59:24;;;;;;;;;;;3.90;99.90;;;;;;5080038;28;20384;-80
2022/01/13 01:01:51;;;;;;;;;;;4.00;99.90;;;;;;5074666;22;19928;-80
2022/01/13 01:04:17;;;;;;;;;;;4.00;99.90;;;;;;5109468;22;19908;-80
2022/01/13 01:06:42;;;;;;;;;;;4.00;99.90;;;;;;5073751;23;19986;-81
2022/01/13 01:09:14;;;;;;;;;;;4.00;99.90;;;;;;5093669;23;19924;-80
2022/01/13 01:11:40;;;;;;;;;;;3.90;99.90;;;;;;5104476;22;19935;-80
2022/01/13 01:14:07;;;;;;;;;;;4.00;99.90;;;;;;5084130;23;19971;-80
2022/01/13 01:16:34;;;;;;;;;;;4.00;99.90;;;;;;5056070;22;19939;-80
2022/01/13 01:19:04;;;;;;;;;;;4.20;99.90;;;;;;5068370;23;19925;-81
2022/01/13 01:29:03;;;;;;;;;;;4.00;99.90;;;;;;5080836;22;19928;-80
2022/01/13 01:31:31;;;;;;;;;;;4.00;99.90;;;;;;5043274;28;19928;-80
2022/01/13 01:36:43;;;;;;;;;;;4.10;99.90;;;;;;5096443;22;19935;-80
2022/01/13 01:39:09;;;;;;;;;;;4.10;99.90;;;;;;5100854;22;20015;-80
2022/01/13 01:41:36;;;;;;;;;;;4.20;99.90;;;;;;5092991;22;19923;-80
2022/01/13 01:44:09;;;;;;;;;;;4.20;99.90;;;;;;5057757;22;20272;-80
2022/01/13 01:46:39;;;;;;;;;;;4.20;99.90;;;;;;5067549;23;20274;-80
2022/01/13 01:49:15;;;;;;;;;;;4.20;99.90;;;;;;5086440;28;19924;-80
2022/01/13 01:51:40;;;;;;;;;;;4.20;99.90;;;;;;5069310;28;19947;-80
2022/01/13 01:54:06;;;;;;;;;;;4.50;99.90;;;;;;5081284;22;19924;-80
2022/01/13 01:56:32;;;;;;;;;;;4.20;99.90;;;;;;5100161;22;19924;-80
2022/01/13 01:59:01;;;;;;;;;;;4.20;99.90;;;;;;5078561;23;19924;-80
2022/01/13 02:01:27;;;;;;;;;;;4.30;99.90;;;;;;5069283;28;19924;-80
2022/01/13 02:03:53;;;;;;;;;;;4.60;99.90;;;;;;5086469;22;19931;-80
2022/01/13 02:06:19;;;;;;;;;;;4.30;99.90;;;;;;5097079;22;19966;-81
2022/01/13 02:08:45;;;;;;;;;;;4.30;99.90;;;;;;5084599;23;19935;-80
2022/01/13 02:11:17;;;;;;;;;;;4.30;99.90;;;;;;5080844;23;19924;-80
2022/01/13 02:13:49;;;;;;;;;;;4.30;99.90;;;;;;5056546;23;19966;-80
2022/01/13 02:18:56;;;;;;;;;;;4.90;99.90;;;;;;5094737;22;20406;-80
2022/01/13 02:21:24;;;;;;;;;;;5.00;99.90;;;;;;5107898;22;19924;-80
2022/01/13 02:23:50;;;;;;;;;;;4.40;99.90;;;;;;5072545;23;20682;-81
2022/01/13 02:26:15;;;;;;;;;;;4.40;99.90;;;;;;5080953;22;19925;-80
2022/01/13 02:28:41;;;;;;;;;;;4.40;99.90;;;;;;5090587;22;20019;-80
2022/01/13 02:31:07;;;;;;;;;;;4.40;99.90;;;;;;5081561;22;19925;-80
2022/01/13 02:33:34;;;;;;;;;;;4.50;99.90;;;;;;5092229;22;19924;-80
2022/01/13 02:35:59;;;;;;;;;;;4.70;99.90;;;;;;5091557;23;19991;-80
2022/01/13 02:38:25;;;;;;;;;;;4.50;99.90;;;;;;5085448;28;19989;-80
2022/01/13 02:40:51;;;;;;;;;;;4.80;99.90;;;;;;5099102;22;19978;-80
2022/01/13 02:43:17;;;;;;;;;;;4.50;99.90;;;;;;5095211;23;19924;-80
2022/01/13 02:46:02;;;;;;;;;;;4.90;99.90;;;;;;5091756;28;19924;-80
2022/01/13 02:48:30;;;;;;;;;;;4.50;99.90;;;;;;5077709;23;19924;-80
2022/01/13 02:50:56;;;;;;;;;;;4.50;99.90;;;;;;5092708;22;19924;-80
2022/01/13 02:53:22;;;;;;;;;;;4.40;99.90;;;;;;5094854;22;19946;-81
2022/01/13 02:55:48;;;;;;;;;;;4.50;99.90;;;;;;5092993;22;21023;-80
2022/01/13 02:58:14;;;;;;;;;;;4.40;99.90;;;;;;5102278;22;19924;-80
2022/01/13 03:00:40;;;;;;;;;;;4.90;99.90;;;;;;5084992;28;19931;-80
2022/01/13 03:03:06;;;;;;;;;;;4.50;99.90;;;;;;5108985;22;19981;-80
2022/01/13 03:05:36;;;;;;;;;;;4.80;99.90;;;;;;5091876;22;19916;-80
2022/01/13 03:08:02;;;;;;;;;;;4.50;99.90;;;;;;5074808;23;19963;-80
2022/01/13 03:10:28;;;;;;;;;;;4.40;99.90;;;;;;5090349;22;19932;-80
2022/01/13 03:12:55;;;;;;;;;;;4.40;99.90;;;;;;5080810;22;19970;-80
2022/01/13 03:15:22;;;;;;;;;;;4.40;99.90;;;;;;5092828;22;19925;-81
2022/01/13 03:17:47;;;;;;;;;;;4.50;99.90;;;;;;5065330;22;19932;-80
2022/01/13 03:20:13;;;;;;;;;;;4.50;99.90;;;;;;5051791;23;19932;-80
2022/01/13 03:22:39;;;;;;;;;;;4.50;99.90;;;;;;5052109;22;19968;-80
2022/01/13 03:25:05;;;;;;;;;;;4.40;99.90;;;;;;5065149;22;19977;-80
2022/01/13 03:27:34;;;;;;;;;;;4.50;99.90;;;;;;5084209;22;19922;-80
2022/01/13 03:30:06;;;;;;;;;;;4.50;99.90;;;;;;5100281;22;19924;-80
2022/01/13 03:32:41;;;;;;;;;;;4.50;99.90;;;;;;5091324;22;19996;-80
2022/01/13 03:35:07;;;;;;;;;;;4.50;99.90;;;;;;5083889;28;20023;-80
2022/01/13 03:37:32;;;;;;;;;;;4.50;99.90;;;;;;5092152;22;19959;-80
2022/01/13 03:39:58;;;;;;;;;;;4.50;99.90;;;;;;5096254;22;19928;-80
2022/01/13 03:42:24;;;;;;;;;;;4.50;99.90;;;;;;5104422;22;19924;-80
2022/01/13 03:44:50;;;;;;;;;;;4.60;99.90;;;;;;5088409;22;19925;-80
2022/01/13 03:47:19;;;;;;;;;;;4.60;99.90;;;;;;5109625;22;20025;31
2022/01/13 03:49:44;;;;;;;;;;;4.60;99.90;;;;;;5099073;22;19924;-80
2022/01/13 03:52:23;;;;;;;;;;;4.60;99.90;;;;;;5106753;22;19924;-80
2022/01/13 03:57:56;;;;;;;;;;;4.60;99.90;;;;;;5144356;22;20015;-80
2022/01/13 04:00:42;;;;;;;;;;;4.70;99.90;;;;;;5090915;22;19924;-81
2022/01/13 04:03:08;;;;;;;;;;;4.70;99.90;;;;;;5075124;22;19959;-80
2022/01/13 04:05:54;;;;;;;;;;;4.70;99.90;;;;;;5066860;28;19928;-80
2022/01/13 04:08:19;;;;;;;;;;;4.70;99.90;;;;;;5079894;23;19931;-80
2022/01/13 04:10:45;;;;;;;;;;;4.70;99.90;;;;;;5097789;23;19925;-80
2022/01/13 04:13:43;;;;;;;;;;;4.70;99.90;;;;;;5080619;23;19931;-80
2022/01/13 04:16:09;;;;;;;;;;;4.70;99.90;;;;;;5097702;22;20019;-80
2022/01/13 04:18:34;;;;;;;;;;;4.70;99.90;;;;;;5090908;22;19986;-80
2022/01/13 04:21:00;;;;;;;;;;;5.30;99.90;;;;;;5067046;23;19931;-80
2022/01/13 04:23:26;;;;;;;;;;;4.80;99.90;;;;;;5055948;23;19936;-81
2022/01/13 04:25:51;;;;;;;;;;;4.80;99.90;;;;;;5091654;22;19948;-80
2022/01/13 04:28:17;;;;;;;;;;;4.80;99.90;;;;;;5069640;23;19923;-81
2022/01/13 04:33:08;;;;;;;;;;;4.80;99.90;;;;;;5098653;22;19967;-81
2022/01/13 04:35:34;;;;;;;;;;;4.90;99.90;;;;;;5078745;22;19930;-80
2022/01/13 04:37:59;;;;;;;;;;;4.90;99.90;;;;;;5087386;22;19990;-80
2022/01/13 04:40:25;;;;;;;;;;;4.90;99.90;;;;;;5078992;22;20016;-81
2022/01/13 04:42:54;;;;;;;;;;;5.00;99.90;;;;;;5081740;23;19960;-80
2022/01/13 04:45:21;;;;;;;;;;;5.00;99.90;;;;;;5084894;22;19989;-81
2022/01/13 04:47:48;;;;;;;;;;;5.00;99.90;;;;;;5045483;28;19925;-80
2022/01/13 04:50:20;;;;;;;;;;;5.00;99.90;;;;;;5072837;22;19925;-80
2022/01/13 04:52:45;;;;;;;;;;;5.00;99.90;;;;;;5082765;22;19935;-80
2022/01/13 04:57:45;;;;;;;;;;;5.00;99.90;;;;;;5106201;22;21135;-80
2022/01/13 05:00:17;;;;;;;;;;;5.00;99.90;;;;;;5086176;22;19929;-81
2022/01/13 05:02:43;;;;;;;;;;;5.10;99.90;;;;;;5096721;22;19949;-80
2022/01/13 05:05:09;;;;;;;;;;;5.00;99.90;;;;;;5086616;22;19925;-81
2022/01/13 05:07:34;;;;;;;;;;;5.00;99.90;;;;;;5095826;22;20333;-81
2022/01/13 05:10:00;;;;;;;;;;;5.00;99.90;;;;;;5087339;22;19928;-81
2022/01/13 05:12:32;;;;;;;;;;;5.00;99.90;;;;;;5078544;22;20038;-80
2022/01/13 05:15:01;;;;;;;;;;;5.00;99.90;;;;;;5093245;22;19924;-80
2022/01/13 05:20:14;;;;;;;;;;;5.00;99.90;;;;;;5086716;22;19931;-80
2022/01/13 05:22:39;;;;;;;;;;;5.00;99.90;;;;;;5080677;22;23388;-80
2022/01/13 05:25:05;;;;;;;;;;;5.50;99.90;;;;;;5076780;23;19928;-80
2022/01/13 05:27:31;;;;;;;;;;;5.00;99.90;;;;;;5074749;22;19927;-80
2022/01/13 05:29:58;;;;;;;;;;;5.00;99.90;;;;;;5099186;22;20341;-80
2022/01/13 05:32:24;;;;;;;;;;;4.90;99.90;;;;;;5104033;22;19931;-80
2022/01/13 05:34:50;;;;;;;;;;;5.00;99.90;;;;;;5107378;22;19924;-80
2022/01/13 05:37:19;;;;;;;;;;;5.10;99.90;;;;;;5106126;22;19932;-80
2022/01/13 05:39:44;;;;;;;;;;;4.90;99.90;;;;;;5094102;22;19931;-80
2022/01/13 05:42:10;;;;;;;;;;;5.00;99.90;;;;;;5107989;23;19932;-80
2022/01/13 05:44:39;;;;;;;;;;;5.00;99.90;;;;;;5065348;28;19924;-80
2022/01/13 05:47:05;;;;;;;;;;;5.00;99.90;;;;;;5086517;23;19946;-80
2022/01/13 05:49:30;;;;;;;;;;;4.90;99.90;;;;;;5081845;23;19954;-80
2022/01/13 05:51:56;;;;;;;;;;;5.40;99.90;;;;;;5080186;23;19924;-80
2022/01/13 05:54:22;;;;;;;;;;;4.90;99.90;;;;;;5072457;23;20015;-81
2022/01/13 05:56:47;;;;;;;;;;;4.90;99.90;;;;;;5070784;22;19996;-80
2022/01/13 05:59:21;;;;;;;;;;;4.90;99.90;;;;;;5077060;23;20322;-80
2022/01/13 06:01:46;;;;;;;;;;;4.90;99.90;;;;;;5091510;22;19929;-80
2022/01/13 06:04:12;;;;;;;;;;;4.90;99.90;;;;;;5061138;28;19924;-80
2022/01/13 06:06:39;;;;;;;;;;;4.90;99.90;;;;;;5016756;22;1928180;-80
2022/01/13 06:09:04;;;;;;;;;;;4.90;99.90;;;;;;5088946;22;19928;-80
2022/01/13 06:11:38;;;;;;;;;;;4.90;99.90;;;;;;5074832;23;19928;-80
2022/01/13 06:14:04;;;;;;;;;;;4.90;99.90;;;;;;5069439;23;19932;-80
2022/01/13 06:16:29;;;;;;;;;;;4.90;99.90;;;;;;5072644;22;19924;-80
2022/01/13 06:18:55;;;;;;;;;;;5.00;99.90;;;;;;5096115;22;19955;-80
2022/01/13 06:21:20;;;;;;;;;;;4.90;99.90;;;;;;5097878;23;19924;-80
2022/01/13 06:23:46;;;;;;;;;;;4.80;99.90;;;;;;5093575;22;19924;-80
2022/01/13 06:26:18;;;;;;;;;;;4.80;99.90;;;;;;5103699;22;20345;-80
2022/01/13 06:28:43;;;;;;;;;;;4.80;99.90;;;;;;5103065;22;19930;-80
2022/01/13 06:31:16;;;;;;;;;;;4.80;99.90;;;;;;5082155;23;19925;-80
2022/01/13 06:33:42;;;;;;;;;;;4.80;99.90;;;;;;5082902;22;20375;-80
2022/01/13 06:36:07;;;;;;;;;;;4.80;99.90;;;;;;5108181;23;19924;-80
2022/01/13 06:38:33;;;;;;;;;;;4.80;99.90;;;;;;5104960;28;20026;-80
2022/01/13 06:41:01;;;;;;;;;;;5.20;99.90;;;;;;5100983;22;19955;-80
2022/01/13 06:43:27;;;;;;;;;;;4.80;99.90;;;;;;5100013;22;19928;-80
2022/01/13 06:45:53;;;;;;;;;;;4.80;99.90;;;;;;5082322;22;19970;-80
2022/01/13 06:48:18;;;;;;;;;;;4.90;99.90;;;;;;5113902;22;20306;-81
2022/01/13 06:50:44;;;;;;;;;;;4.90;99.90;;;;;;5091908;22;19943;-80
2022/01/13 06:53:16;;;;;;;;;;;4.80;99.90;;;;;;5080982;22;19931;-81
2022/01/13 06:55:42;;;;;;;;;;;4.80;99.90;;;;;;5096016;22;19955;-81
2022/01/13 06:58:07;;;;;;;;;;;4.90;99.90;;;;;;5065298;28;19924;-81
2022/01/13 07:00:33;;;;;;;;;;;5.30;99.90;;;;;;5081640;28;19929;-81
2022/01/13 07:03:02;;;;;;;;;;;4.90;99.90;;;;;;5096049;28;19924;-81
2022/01/13 07:05:28;;;;;;;;;;;5.30;99.90;;;;;;5045476;28;19925;-81
2022/01/13 07:07:53;;;;;;;;;;;5.30;99.90;;;;;;5045321;28;19925;-81
2022/01/13 07:10:19;;;;;;;;;;;5.60;99.90;;;;;;5062812;28;19979;-81
2022/01/13 07:12:45;;;;;;;;;;;4.90;99.90;;;;;;5082818;28;19932;-80
2022/01/13 07:15:10;;;;;;;;;;;5.00;99.90;;;;;;5079254;28;19925;-81
2022/01/13 07:17:36;;;;;;;;;;;4.90;99.90;;;;;;5044846;28;19925;-81
2022/01/13 07:20:02;;;;;;;;;;;5.20;99.90;;;;;;5061909;28;19925;-81
2022/01/13 07:22:28;;;;;;;;;;;5.00;99.90;;;;;;5077876;28;20367;-81
2022/01/13 07:24:53;;;;;;;;;;;5.60;99.90;;;;;;5078700;28;19974;-81
2022/01/13 07:27:19;;;;;;;;;;;5.00;99.90;;;;;;5102638;23;19924;-81
2022/01/13 07:29:45;;;;;;;;;;;5.00;99.90;;;;;;5084935;28;20026;-81
2022/01/13 07:32:11;;;;;;;;;;;5.00;99.90;;;;;;5084753;28;20015;-81
2022/01/13 07:34:37;;;;;;;;;;;5.60;99.90;;;;;;5101545;28;20011;-81
2022/01/13 07:37:03;;;;;;;;;;;5.00;99.90;;;;;;5101574;28;19962;-81
2022/01/13 07:39:29;;;;;;;;;;;5.00;99.90;;;;;;5084193;28;19920;-81
2022/01/13 07:41:54;;;;;;;;;;;5.50;99.90;;;;;;5073950;23;19928;-81
2022/01/13 07:44:20;;;;;;;;;;;5.00;99.90;;;;;;5093067;22;19924;-81
2022/01/13 07:46:46;;;;;;;;;;;5.00;99.90;;;;;;5066337;28;19935;-81
2022/01/13 07:49:11;;;;;;;;;;;5.00;99.90;;;;;;5066944;28;20282;-81
2022/01/13 07:51:37;;;;;;;;;;;5.20;99.90;;;;;;5084055;28;19924;-81
2022/01/13 07:54:02;;;;;;;;;;;5.60;99.90;;;;;;5102207;28;20012;-81
2022/01/13 07:56:28;;;;;;;;;;;5.00;99.90;;;;;;5067540;28;19924;-81
2022/01/13 07:58:54;;;;;;;;;;;5.30;99.90;;;;;;5084121;28;19924;-81
2022/01/13 08:01:20;;;;;;;;;;;5.10;99.90;;;;;;5083675;28;19928;-81
2022/01/13 08:03:46;;;;;;;;;;;5.30;99.90;;;;;;5067048;28;19928;-81
2022/01/13 08:06:11;;;;;;;;;;;5.10;99.90;;;;;;5066332;28;19924;-81
2022/01/13 08:08:37;;;;;;;;;;;5.30;99.90;;;;;;5067370;28;19924;-81
2022/01/13 08:11:04;;;;;;;;;;;5.10;99.90;;;;;;5067188;28;19931;-81
2022/01/13 08:13:29;;;;;;;;;;;5.60;99.90;;;;;;5083732;28;19997;-81
2022/01/13 08:15:55;;;;;;;;;;;5.20;99.90;;;;;;5066461;28;19924;-81
2022/01/13 08:21:05;;;;;;;;;;;5.20;99.90;;;;;;5082665;28;19967;-81
2022/01/13 08:23:31;;;;;;;;;;;5.30;99.90;;;;;;5066399;28;19928;-81
2022/01/13 08:25:57;;;;;;;;;;;5.70;99.90;;;;;;5066827;28;19928;-81
2022/01/13 08:28:23;;;;;;;;;;;5.30;99.90;;;;;;5074603;22;20274;-81
2022/01/13 08:30:49;;;;;;;;;;;5.30;99.90;;;;;;5065124;28;19924;-81
2022/01/13 08:35:43;;;;;;;;;;;5.30;99.90;;;;;;5127996;22;20305;-81
2022/01/13 08:38:16;;;;;;;;;;;5.80;99.90;;;;;;5101754;28;19969;-81
2022/01/13 08:40:42;;;;;;;;;;;5.70;99.90;;;;;;5124339;28;19990;-81
2022/01/13 08:43:07;;;;;;;;;;;5.40;99.90;;;;;;5084130;28;20326;-81
2022/01/13 08:45:33;;;;;;;;;;;5.30;99.90;;;;;;5090936;28;19969;-81
2022/01/13 08:47:59;;;;;;;;;;;5.40;99.90;;;;;;5103392;28;19966;-81
2022/01/13 08:50:24;;;;;;;;;;;5.70;99.90;;;;;;5089781;28;19931;-81
2022/01/13 08:52:50;;;;;;;;;;;5.40;99.90;;;;;;5098660;28;19931;-81
2022/01/13 08:55:15;;;;;;;;;;;6.00;99.90;;;;;;5099175;28;19924;-81
2022/01/13 08:57:41;;;;;;;;;;;5.40;99.90;;;;;;5083063;28;19928;-81
2022/01/13 09:00:07;;;;;;;;;;;5.40;99.90;;;;;;5099104;28;19924;-81
2022/01/13 09:02:33;;;;;;;;;;;5.40;99.90;;;;;;5082302;28;19924;-81
2022/01/13 09:05:03;;;;;;;;;;;5.40;99.90;;;;;;5100569;28;20443;-81
2022/01/13 09:07:28;;;;;;;;;;;5.40;99.90;;;;;;5115656;28;19931;-81
2022/01/13 09:09:55;;;;;;;;;;;5.40;99.90;;;;;;5099699;28;19924;-81
2022/01/13 09:12:20;;;;;;;;;;;5.50;99.90;;;;;;5099806;28;19969;-81
2022/01/13 09:14:46;;;;;;;;;;;5.50;99.90;;;;;;5099645;28;20010;-81
2022/01/13 09:17:20;;;;;;;;;;;5.50;99.90;;;;;;5082999;28;19931;-81
2022/01/13 09:19:45;;;;;;;;;;;5.50;99.90;;;;;;5118386;28;20355;-81
2022/01/13 09:22:11;;;;;;;;;;;6.00;99.90;;;;;;5101123;28;19924;-81
2022/01/13 09:24:37;;;;;;;;;;;5.60;99.90;;;;;;5100918;28;19988;-81
2022/01/13 09:27:03;;;;;;;;;;;5.60;99.90;;;;;;5082635;28;19947;-81
2022/01/13 09:29:29;;;;;;;;;;;5.60;99.90;;;;;;5116559;28;19932;-81
2022/01/13 09:31:55;;;;;;;;;;;5.60;99.90;;;;;;5082337;28;19924;-81
2022/01/13 09:34:20;;;;;;;;;;;6.30;99.90;;;;;;5101256;22;19947;-82
2022/01/13 09:36:46;;;;;;;;;;;5.80;99.90;;;;;;5063658;28;19924;-81
2022/01/13 09:39:11;;;;;;;;;;;5.70;99.90;;;;;;5082638;28;19928;-81
2022/01/13 09:41:40;;;;;;;;;;;5.90;99.90;;;;;;5072753;22;19924;-82
2022/01/13 09:44:06;;;;;;;;;;;5.80;99.90;;;;;;5065205;28;19946;-81
2022/01/13 09:46:32;;;;;;;;;;;5.80;99.90;;;;;;5082590;28;20003;-81
2022/01/13 09:49:02;;;;;;;;;;;5.90;99.90;;;;;;5065317;28;19945;-81
2022/01/13 09:51:29;;;;;;;;;;;5.90;99.90;;;;;;5076524;28;19950;-82
2022/01/13 09:53:54;;;;;;;;;;;5.90;99.90;;;;;;5101250;28;19971;-82
2022/01/13 09:56:20;;;;;;;;;;;5.90;99.90;;;;;;5086222;28;19970;-81
2022/01/13 09:58:45;;;;;;;;;;;6.00;99.90;;;;;;5069705;28;19970;-81
2022/01/13 10:01:12;;;;;;;;;;;5.90;99.90;;;;;;5104340;28;19924;-81
2022/01/13 10:03:37;;;;;;;;;;;6.00;99.90;;;;;;5096004;28;19924;-81
2022/01/13 10:06:10;;;;;;;;;;;6.00;99.90;;;;;;5095210;28;19924;-81
2022/01/13 10:08:47;;;;;;;;;;;6.00;99.90;;;;;;5070384;28;19932;-81
2022/01/13 10:11:22;;;;;;;;;;;6.00;99.90;;;;;;5120107;28;19930;-81
2022/01/13 10:13:59;;;;;;;;;;;6.10;99.90;;;;;;5102908;28;19968;-81
2022/01/13 10:16:26;;;;;;;;;;;6.40;99.90;;;;;;5104600;28;19932;-81
2022/01/13 10:18:52;;;;;;;;;;;6.10;99.90;;;;;;5085456;28;20014;-81
2022/01/13 10:21:18;;;;;;;;;;;6.20;99.90;;;;;;5103823;28;19967;-82
2022/01/13 10:23:59;;;;;;;;;;;6.10;99.90;;;;;;5106762;22;19971;-81
2022/01/13 10:26:25;;;;;;;;;;;6.20;99.90;;;;;;5130085;22;20259;-81
2022/01/13 10:28:51;;;;;;;;;;;6.20;99.90;;;;;;5077014;23;19950;-81
2022/01/13 10:31:17;;;;;;;;;;;6.20;99.90;;;;;;5081454;22;19924;-81
2022/01/13 10:33:42;;;;;;;;;;;6.20;99.90;;;;;;5081402;23;19978;-81
2022/01/13 10:36:10;;;;;;;;;;;6.20;99.90;;;;;;5065293;28;19925;-81
2022/01/13 10:38:55;;;;;;;;;;;6.30;99.90;;;;;;5058450;22;19924;-81
2022/01/13 10:41:50;;;;;;;;;;;6.30;99.90;;;;;;5101471;22;20495;-81
2022/01/13 10:44:18;;;;;;;;;;;6.30;99.90;;;;;;5070355;23;19925;-81
2022/01/13 10:46:56;;;;;;;;;;;6.30;99.90;;;;;;5068624;23;19931;-81
2022/01/13 10:49:30;;;;;;;;;;;6.30;99.90;;;;;;5064254;23;19989;-80
2022/01/13 10:54:41;;;;;;;;;;;6.40;99.90;;;;;;5110415;22;20009;-81
2022/01/13 10:57:20;;;;;;;;;;;6.40;99.90;;;;;;5075900;23;19925;-81
2022/01/13 10:59:46;;;;;;;;;;;6.40;99.90;;;;;;5085996;28;19988;-81
2022/01/13 11:02:12;;;;;;;;;;;6.40;99.90;;;;;;5070354;28;19968;-81
2022/01/13 11:04:37;;;;;;;;;;;6.40;99.90;;;;;;5069383;28;19946;-81
2022/01/13 11:07:14;;;;;;;;;;;6.70;99.90;;;;;;5070568;28;20019;-81
2022/01/13 11:09:43;;;;;;;;;;;6.40;99.90;;;;;;5070802;28;19924;-81
2022/01/13 11:12:10;;;;;;;;;;;6.60;99.90;;;;;;5091792;23;19931;-81
2022/01/13 11:14:42;;;;;;;;;;;6.50;99.90;;;;;;5112164;22;19987;-80
2022/01/13 11:17:08;;;;;;;;;;;6.60;99.90;;;;;;5071637;28;19924;-81
2022/01/13 11:19:34;;;;;;;;;;;6.60;99.90;;;;;;5076633;22;19924;-80
2022/01/13 11:21:59;;;;;;;;;;;6.60;99.90;;;;;;5086976;28;19982;-80
2022/01/13 11:24:25;;;;;;;;;;;6.70;99.90;;;;;;5106061;28;20007;-81
2022/01/13 11:26:52;;;;;;;;;;;6.60;99.90;;;;;;5071133;28;20401;-81
2022/01/13 11:29:18;;;;;;;;;;;6.70;99.90;;;;;;5070870;28;19963;-81
2022/01/13 11:31:44;;;;;;;;;;;6.70;99.90;;;;;;5106528;22;19924;-81
2022/01/13 11:34:10;;;;;;;;;;;6.70;99.90;;;;;;5087940;28;19935;-81
2022/01/13 11:36:37;;;;;;;;;;;6.70;99.90;;;;;;5104245;28;19924;-81
2022/01/13 11:39:08;;;;;;;;;;;6.70;99.90;;;;;;5088673;28;20328;-81
2022/01/13 11:41:34;;;;;;;;;;;6.70;99.90;;;;;;5086981;28;19931;-81
2022/01/13 11:44:21;;;;;;;;;;;6.80;99.90;;;;;;5087457;28;19935;-81
2022/01/13 11:46:48;;;;;;;;;;;6.80;99.90;;;;;;5091839;22;19924;-81
2022/01/13 11:50:04;;;;;;;;;;;6.80;99.90;;;;;;5091184;22;20022;-81
2022/01/13 11:52:10;;;;;;;;;;;6.80;99.90;;;;;;5077358;28;20295;-81
2022/01/13 11:54:37;;;;;;;;;;;7.20;99.90;;;;;;5066696;28;19929;-81
2022/01/13 11:57:17;;;;;;;;;;;7.40;99.90;;;;;;5083725;28;19925;-80
2022/01/13 11:59:52;;;;;;;;;;;6.80;99.90;;;;;;5084851;28;19954;-81
2022/01/13 12:02:25;;;;;;;;;;;6.80;99.90;;;;;;5083788;28;19950;-81
2022/01/13 12:05:01;;;;;;;;;;;6.80;99.90;;;;;;5083883;28;19925;-81
2022/01/13 12:07:35;;;;;;;;;;;6.80;99.90;;;;;;5067349;28;19924;-81
2022/01/13 12:10:02;;;;;;;;;;;6.80;99.90;;;;;;5082554;28;19925;-81
2022/01/13 12:12:32;;;;;;;;;;;7.10;99.90;;;;;;5082547;28;20399;-81
2022/01/13 12:15:27;;;;;;;;;;;7.20;99.90;;;;;;5079774;28;19955;-81
2022/01/13 12:17:55;;;;;;;;;;;6.80;99.90;;;;;;5055870;22;19924;-81
2022/01/13 12:20:27;;;;;;;;;;;6.90;99.90;;;;;;5085585;22;20042;-81
2022/01/13 12:25:42;;;;;;;;;;;7.50;99.90;;;;;;5004280;28;19984;-81
2022/01/13 12:28:13;;;;;;;;;;;7.40;99.90;;;;;;5003416;28;19967;-81
2022/01/13 12:30:39;;;;;;;;;;;6.90;99.90;;;;;;5004014;28;19925;-81
2022/01/13 12:33:07;;;;;;;;;;;6.80;99.90;;;;;;5002419;28;19926;-81
2022/01/13 12:35:39;;;;;;;;;;;6.60;99.90;;;;;;5001753;28;19962;-81
2022/01/13 12:38:05;;;;;;;;;;;6.90;99.90;;;;;;4987226;28;19925;-81
2022/01/13 12:40:40;;;;;;;;;;;7.40;99.90;;;;;;4999016;22;19936;-81
2022/01/13 12:43:20;;;;;;;;;;;6.90;99.90;;;;;;5066783;28;19924;-81
2022/01/13 12:45:46;;;;;;;;;;;6.90;99.90;;;;;;5081862;28;19932;-81
2022/01/13 12:48:12;;;;;;;;;;;7.00;99.90;;;;;;5065484;28;19924;-81
2022/01/13 12:50:37;;;;;;;;;;;7.40;99.90;;;;;;5070796;23;19924;-81
2022/01/13 12:53:18;;;;;;;;;;;7.00;99.90;;;;;;5087140;22;19924;-81
2022/01/13 12:55:55;;;;;;;;;;;7.00;99.90;;;;;;5099820;22;19946;-81
2022/01/13 12:58:22;;;;;;;;;;;7.10;99.90;;;;;;5091865;22;19931;-81
2022/01/13 13:00:47;;;;;;;;;;;7.10;99.90;;;;;;5083905;28;19959;-81
2022/01/13 13:03:13;;;;;;;;;;;7.10;99.90;;;;;;5083136;28;19924;-81
2022/01/13 13:05:40;;;;;;;;;;;7.20;99.90;;;;;;5084041;28;19924;-81
2022/01/13 13:08:06;;;;;;;;;;;7.60;99.90;;;;;;5081374;28;20463;-81
2022/01/13 13:10:32;;;;;;;;;;;7.80;99.90;;;;;;5082290;28;20401;-81
2022/01/13 13:12:58;;;;;;;;;;;7.60;99.90;;;;;;5082823;28;19924;-81
2022/01/13 13:17:51;;;;;;;;;;;7.20;99.90;;;;;;5100905;28;19963;-81
2022/01/13 13:20:24;;;;;;;;;;;7.50;99.90;;;;;;5082848;28;19963;-81
2022/01/13 13:22:50;;;;;;;;;;;7.30;99.90;;;;;;5099401;28;19931;-81
2022/01/13 13:25:32;;;;;;;;;;;7.40;99.90;;;;;;5098274;22;19932;-81
2022/01/13 13:28:17;;;;;;;;;;;7.30;99.90;;;;;;5078213;28;19939;-81
2022/01/13 13:30:49;;;;;;;;;;;7.40;99.90;;;;;;5063388;28;19966;-81
2022/01/13 13:33:17;;;;;;;;;;;7.40;99.90;;;;;;5062556;28;20446;-81
2022/01/13 13:35:44;;;;;;;;;;;7.40;99.90;;;;;;5079930;28;19959;-81
2022/01/13 13:38:10;;;;;;;;;;;7.20;99.90;;;;;;5063902;28;19969;-81
2022/01/13 13:40:41;;;;;;;;;;;7.40;99.90;;;;;;5061201;28;19924;-81
2022/01/13 13:43:06;;;;;;;;;;;7.40;99.90;;;;;;5065443;28;20382;-81
2022/01/13 13:45:32;;;;;;;;;;;7.40;99.90;;;;;;5075694;22;19924;-81
2022/01/13 13:47:59;;;;;;;;;;;7.50;99.90;;;;;;5085660;28;19924;-81
2022/01/13 13:50:25;;;;;;;;;;;7.50;99.90;;;;;;5100556;22;20018;-81
2022/01/13 13:53:04;;;;;;;;;;;7.80;99.90;;;;;;5079914;23;19924;-81
2022/01/13 13:55:29;;;;;;;;;;;7.50;99.90;;;;;;5065498;28;19924;-81
2022/01/13 13:57:55;;;;;;;;;;;7.50;99.90;;;;;;5086982;22;19939;-81
2022/01/13 14:00:23;;;;;;;;;;;7.90;99.90;;;;;;5093827;22;19954;-81
2022/01/13 14:02:52;;;;;;;;;;;7.60;99.90;;;;;;5049435;28;19925;-81
2022/01/13 14:05:18;;;;;;;;;;;7.60;99.90;;;;;;5050952;28;20334;-81
2022/01/13 14:07:46;;;;;;;;;;;7.50;99.90;;;;;;5067140;28;19924;-81
2022/01/13 14:10:22;;;;;;;;;;;7.70;99.90;;;;;;5085868;22;19932;-81
2022/01/13 14:13:03;;;;;;;;;;;7.50;99.90;;;;;;5082481;28;19982;-81
2022/01/13 14:15:36;;;;;;;;;;;7.40;99.90;;;;;;5082164;28;19966;-81
2022/01/13 14:18:08;;;;;;;;;;;7.40;99.90;;;;;;5089355;22;19932;-81
2022/01/13 14:20:38;;;;;;;;;;;7.40;99.90;;;;;;5065660;28;19942;-81
2022/01/13 14:23:08;;;;;;;;;;;7.30;99.90;;;;;;5065471;28;19935;-81
2022/01/13 14:25:35;;;;;;;;;;;7.40;99.90;;;;;;5082499;28;19950;-81
2022/01/13 14:28:10;;;;;;;;;;;7.50;99.90;;;;;;5066961;28;19964;-81
2022/01/13 14:30:38;;;;;;;;;;;7.40;99.90;;;;;;5065408;28;19925;-81
2022/01/13 14:33:22;;;;;;;;;;;7.50;99.90;;;;;;5066102;28;19950;-81
2022/01/13 14:35:58;;;;;;;;;;;7.50;99.90;;;;;;5082598;28;19924;-81
2022/01/13 14:38:32;;;;;;;;;;;7.40;99.90;;;;;;5083875;28;19928;-81
2022/01/13 14:40:58;;;;;;;;;;;7.60;99.90;;;;;;5068783;28;19963;-81
2022/01/13 14:43:23;;;;;;;;;;;7.50;99.90;;;;;;5118993;22;19924;-81
2022/01/13 14:46:22;;;;;;;;;;;7.40;99.90;;;;;;5072527;28;19924;-80
2022/01/13 14:48:47;;;;;;;;;;;7.30;99.90;;;;;;5010996;22;20291;-81
2022/01/13 14:51:14;;;;;;;;;;;7.20;99.90;;;;;;5065424;28;19924;-81
2022/01/13 14:53:40;;;;;;;;;;;7.60;99.90;;;;;;5061639;22;22396;-81
2022/01/13 14:56:07;;;;;;;;;;;7.00;99.90;;;;;;5075410;23;19928;-81
2022/01/13 14:58:33;;;;;;;;;;;6.90;99.90;;;;;;5085077;28;19924;-81
2022/01/13 15:00:59;;;;;;;;;;;6.90;99.90;;;;;;5084860;28;19925;-80
2022/01/13 15:03:26;;;;;;;;;;;7.20;99.90;;;;;;5088062;22;19925;-81
2022/01/13 15:05:52;;;;;;;;;;;6.80;99.90;;;;;;5068234;28;20286;-81
2022/01/13 15:08:17;;;;;;;;;;;7.10;99.90;;;;;;5067659;28;19946;-81
2022/01/13 15:10:43;;;;;;;;;;;7.00;99.90;;;;;;5074425;28;20298;-81
2022/01/13 15:13:08;;;;;;;;;;;6.90;99.90;;;;;;5058195;28;20412;-81
2022/01/13 15:15:34;;;;;;;;;;;6.60;99.90;;;;;;5067628;28;19974;-81
2022/01/13 15:18:01;;;;;;;;;;;6.70;99.90;;;;;;5078599;28;19971;-81
2022/01/13 15:20:28;;;;;;;;;;;6.40;99.90;;;;;;5060132;28;19932;-81
2022/01/13 15:22:54;;;;;;;;;;;6.40;99.90;;;;;;5068132;28;19924;-81